Time;durP1;ratioP1;P1;durP2;ratioP2;P2;SDS_P1;SDS_P2;PMS_P1;PMS_P2;Temp;Humidity;BMP_temperature;BMP_pressure;BME280_temperature;BME280_humidity;BME280_pressure;Samples;Min_cycle;Max_cycle;Signal;HPM_P1;HPM_P2
2023/05/21 00:00:11;;;;;;;19.97;18.23;;;;;;;15.64;100.00;99930.00;5073424;28;20190;-77
2023/05/21 00:02:38;;;;;;;19.93;18.33;;;;;;;15.61;100.00;99930.09;5075339;28;20181;-78
2023/05/21 00:05:04;;;;;;;21.23;19.43;;;;;;;15.62;100.00;99937.84;5072895;28;20199;-77
2023/05/21 00:07:30;;;;;;;21.53;19.80;;;;;;;15.57;100.00;99926.75;5073496;28;20783;-76
2023/05/21 00:09:55;;;;;;;19.67;18.03;;;;;;;15.55;100.00;99926.78;5073545;28;20192;-77
2023/05/21 00:12:21;;;;;;;20.30;18.60;;;;;;;15.53;100.00;99930.38;5072734;28;20185;-74
2023/05/21 00:14:46;;;;;;;19.10;17.60;;;;;;;15.48;100.00;99927.94;5073731;28;20205;-77
2023/05/21 00:17:11;;;;;;;19.27;17.77;;;;;;;15.47;100.00;99920.13;5057322;28;20341;-77
2023/05/21 00:19:39;;;;;;;20.97;19.37;;;;;;;15.45;100.00;99917.59;5075740;28;20229;-76
2023/05/21 00:22:04;;;;;;;21.13;19.40;;;;;;;15.43;100.00;99916.78;5055612;28;20331;-77
2023/05/21 00:24:30;;;;;;;20.87;19.10;;;;;;;15.42;100.00;99914.25;5071799;28;21046;-76
2023/05/21 00:26:55;;;;;;;19.70;18.10;;;;;;;15.37;100.00;99915.25;5058007;28;20220;-76
2023/05/21 00:29:21;;;;;;;21.00;19.27;;;;;;;15.37;100.00;99909.19;5074994;28;20193;-78
2023/05/21 00:31:47;;;;;;;21.77;19.97;;;;;;;15.36;100.00;99904.88;5071725;28;20689;-77
2023/05/21 00:34:13;;;;;;;21.13;19.43;;;;;;;15.36;100.00;99895.31;5057130;28;20192;-78
2023/05/21 00:36:39;;;;;;;21.47;19.57;;;;;;;15.35;100.00;99893.59;5074595;28;20209;-77
2023/05/21 00:39:05;;;;;;;20.57;18.87;;;;;;;15.35;100.00;99903.19;5071837;28;20962;-77
2023/05/21 00:41:30;;;;;;;20.73;19.03;;;;;;;15.33;100.00;99902.38;5056410;28;20197;-77
2023/05/21 00:43:59;;;;;;;22.20;20.30;;;;;;;15.30;100.00;99898.13;5076779;28;20910;-77
2023/05/21 00:46:27;;;;;;;21.47;19.77;;;;;;;15.31;100.00;99893.75;5075414;28;20185;-76
2023/05/21 00:48:53;;;;;;;21.67;19.87;;;;;;;15.25;100.00;99881.81;5056040;28;20185;-75
2023/05/21 00:51:20;;;;;;;20.57;18.70;;;;;;;15.23;100.00;99887.03;5075293;28;20971;-76
2023/05/21 00:53:48;;;;;;;21.73;19.93;;;;;;;15.21;100.00;99882.81;5073319;28;20192;-76
2023/05/21 00:56:13;;;;;;;21.27;19.57;;;;;;;15.20;100.00;99883.72;5077363;28;20197;-76
2023/05/21 00:58:40;;;;;;;19.90;18.40;;;;;;;15.18;100.00;99882.91;5076838;28;20208;-76
2023/05/21 01:01:05;;;;;;;20.50;18.87;;;;;;;15.15;100.00;99875.19;5060022;28;20638;-76
2023/05/21 01:03:37;;;;;;;20.57;18.97;;;;;;;15.17;100.00;99881.19;5059702;28;20267;-77
2023/05/21 01:06:04;;;;;;;22.17;20.33;;;;;;;15.13;100.00;99880.47;5076079;28;20546;-78
2023/05/21 01:08:29;;;;;;;21.43;19.63;;;;;;;15.09;100.00;99882.34;5082924;28;20213;-76
2023/05/21 01:10:56;;;;;;;21.00;19.33;;;;;;;15.08;100.00;99878.03;5075557;28;20207;-76
2023/05/21 01:13:22;;;;;;;20.43;18.77;;;;;;;15.08;100.00;99869.34;5084660;28;20627;-76
2023/05/21 01:15:49;;;;;;;21.03;19.33;;;;;;;15.06;100.00;99876.34;5081918;28;20664;-76
2023/05/21 01:18:14;;;;;;;19.27;17.77;;;;;;;15.04;100.00;99872.97;5087191;28;20291;-75
2023/05/21 01:20:41;;;;;;;21.17;19.43;;;;;;;15.03;100.00;99871.25;5101735;28;20223;-76
2023/05/21 01:23:06;;;;;;;21.70;19.93;;;;;;;15.00;100.00;99874.81;5099328;28;20217;-77
2023/05/21 01:25:33;;;;;;;22.27;20.37;;;;;;;14.98;100.00;99866.19;5099642;28;20165;-80
2023/05/21 01:27:58;;;;;;;22.23;20.40;;;;;;;14.97;100.00;99867.13;5085254;28;20240;-76
2023/05/21 01:30:24;;;;;;;22.37;20.47;;;;;;;14.93;100.00;99876.78;5071303;28;20280;-76
2023/05/21 01:32:56;;;;;;;22.03;20.23;;;;;;;14.91;100.00;99873.34;5072494;28;20185;-77
2023/05/21 01:35:26;;;;;;;22.43;20.43;;;;;;;14.87;100.00;99877.00;5075259;28;20561;-76
2023/05/21 01:38:08;;;;;;;21.63;19.87;;;;;;;14.85;100.00;99870.97;5072124;28;20227;-77
2023/05/21 01:41:02;;;;;;;21.00;19.30;;;;;;;14.82;100.00;99873.69;5071763;28;20250;-78
2023/05/21 01:43:31;;;;;;;22.70;20.80;;;;;;;14.80;100.00;99870.28;5087163;28;20161;-78
2023/05/21 01:45:58;;;;;;;21.67;19.87;;;;;;;14.75;100.00;99870.44;5072784;28;20188;-78
2023/05/21 01:48:27;;;;;;;21.23;19.53;;;;;;;14.76;100.00;99871.25;5075037;28;21183;-77
2023/05/21 01:50:54;;;;;;;21.60;19.80;;;;;;;14.74;100.00;99870.50;5068822;28;20193;-77
2023/05/21 01:53:20;;;;;;;23.73;21.83;;;;;;;14.75;100.00;99869.56;5074211;28;20197;-78
2023/05/21 01:55:45;;;;;;;23.97;21.90;;;;;;;14.73;100.00;99863.56;5072298;28;20251;-78
2023/05/21 01:58:11;;;;;;;24.60;22.23;;;;;;;14.71;100.00;99858.41;5072910;28;20209;-77
2023/05/21 02:00:38;;;;;;;24.27;22.27;;;;;;;14.68;100.00;99860.25;5053696;28;20190;-77
2023/05/21 02:03:04;;;;;;;23.90;21.93;;;;;;;14.66;100.00;99849.88;5055041;28;20697;-77
2023/05/21 02:05:30;;;;;;;24.13;22.17;;;;;;;14.62;100.00;99853.47;5072652;28;20177;-77
2023/05/21 02:07:55;;;;;;;23.70;21.80;;;;;;;14.61;100.00;99855.22;5076369;28;20314;-78
2023/05/21 02:10:21;;;;;;;24.70;22.70;;;;;;;14.60;100.00;99852.66;5074105;28;20195;-78
2023/05/21 02:12:46;;;;;;;24.67;22.60;;;;;;;14.57;100.00;99844.94;5074155;28;20577;-77
2023/05/21 02:15:13;;;;;;;23.93;22.03;;;;;;;14.56;100.00;99846.72;5075541;28;20250;-76
2023/05/21 02:17:39;;;;;;;25.07;22.87;;;;;;;14.55;100.00;99845.00;5058673;28;20201;-78
2023/05/21 02:20:11;;;;;;;26.37;24.00;;;;;;;14.52;100.00;99837.28;5077613;28;20696;-76
2023/05/21 02:22:41;;;;;;;25.60;23.50;;;;;;;14.52;100.00;99842.50;5059233;28;20188;-78
2023/05/21 02:25:08;;;;;;;24.87;22.87;;;;;;;14.53;100.00;99832.91;5073469;28;20196;-77
2023/05/21 02:27:35;;;;;;;25.43;23.20;;;;;;;14.51;100.00;99840.78;5074946;28;21080;-77
2023/05/21 02:30:02;;;;;;;25.73;23.53;;;;;;;14.51;100.00;99832.97;5074162;28;20193;-78
2023/05/21 02:32:27;;;;;;;26.20;23.80;;;;;;;14.49;100.00;99826.97;5058433;28;20215;-77
2023/05/21 02:34:53;;;;;;;24.67;22.50;;;;;;;14.43;100.00;99828.03;5074625;28;20742;-75
2023/05/21 02:37:19;;;;;;;23.87;21.87;;;;;;;14.42;100.00;99830.69;5059078;28;20883;-78
2023/05/21 02:39:44;;;;;;;24.97;22.80;;;;;;;14.42;100.00;99826.31;5075145;28;21147;-78
2023/05/21 02:42:10;;;;;;;25.00;23.00;;;;;;;14.40;100.00;99829.88;5074756;28;20268;-77
2023/05/21 02:44:35;;;;;;;23.47;21.57;;;;;;;14.38;100.00;99829.09;5076688;28;20896;-77
2023/05/21 02:47:00;;;;;;;24.43;22.30;;;;;;;14.33;100.00;99832.66;5076241;28;20291;-78
2023/05/21 02:49:25;;;;;;;26.13;23.83;;;;;;;14.31;100.00;99831.88;5076044;28;20276;-76
2023/05/21 02:51:51;;;;;;;25.30;23.30;;;;;;;14.29;100.00;99828.47;5074183;28;20181;-76
2023/05/21 02:54:16;;;;;;;24.67;22.57;;;;;;;14.28;100.00;99824.19;5062590;28;20191;-76
2023/05/21 02:56:41;;;;;;;25.20;23.20;;;;;;;14.23;100.00;99826.06;5078143;28;20673;-76
2023/05/21 02:59:07;;;;;;;25.27;23.27;;;;;;;14.20;100.00;99830.53;5081801;28;20212;-78
2023/05/21 03:01:32;;;;;;;25.73;23.63;;;;;;;14.17;100.00;99818.44;5079231;28;20181;-77
2023/05/21 03:03:57;;;;;;;27.17;24.73;;;;;;;14.14;100.00;99824.59;5075650;28;20193;-78
2023/05/21 03:06:23;;;;;;;25.60;23.30;;;;;;;14.11;100.00;99829.91;5072053;28;20202;-77
2023/05/21 03:08:48;;;;;;;24.33;22.30;;;;;;;14.08;100.00;99826.53;5075771;28;20192;-76
2023/05/21 03:11:13;;;;;;;26.57;24.17;;;;;;;14.08;100.00;99826.53;5072853;28;20192;-78
2023/05/21 03:13:39;;;;;;;25.03;23.03;;;;;;;14.04;100.00;99823.19;5073447;28;20271;-79
2023/05/21 03:16:05;;;;;;;24.80;22.80;;;;;;;14.02;100.00;99825.81;5072858;28;21003;-77
2023/05/21 03:18:30;;;;;;;24.83;22.73;;;;;;;13.99;100.00;99820.72;5072108;28;20212;-77
2023/05/21 03:20:57;;;;;;;24.93;22.93;;;;;;;13.96;100.00;99814.75;5074619;28;20185;-78
2023/05/21 03:23:23;;;;;;;24.00;22.10;;;;;;;13.93;100.00;99820.03;5076988;28;20192;-78
2023/05/21 03:25:49;;;;;;;24.53;22.53;;;;;;;13.91;100.00;99814.06;5051338;28;20252;-77
2023/05/21 03:28:16;;;;;;;23.43;21.57;;;;;;;13.88;100.00;99820.19;5074555;28;20197;-76
2023/05/21 03:30:45;;;;;;;24.67;22.57;;;;;;;13.84;100.00;99816.00;5074277;28;20215;-77
2023/05/21 03:33:11;;;;;;;22.70;20.93;;;;;;;13.81;100.00;99816.09;5073125;28;20360;-76
2023/05/21 03:35:36;;;;;;;24.50;22.40;;;;;;;13.77;100.00;99822.28;5073719;28;20506;-77
2023/05/21 03:38:02;;;;;;;23.03;21.20;;;;;;;13.73;100.00;99816.31;5075835;28;20743;-78
2023/05/21 03:40:27;;;;;;;24.03;22.23;;;;;;;13.71;100.00;99816.34;5074947;28;20684;-79
2023/05/21 03:42:52;;;;;;;26.10;23.87;;;;;;;13.71;100.00;99812.91;5072881;28;20193;-76
2023/05/21 03:45:17;;;;;;;24.53;22.53;;;;;;;13.69;100.00;99825.09;5075060;28;20258;-76
2023/05/21 03:47:43;;;;;;;24.10;22.20;;;;;;;13.67;100.00;99824.28;5074804;28;20232;-77
2023/05/21 03:50:09;;;;;;;24.07;22.17;;;;;;;13.66;100.00;99830.38;5052121;28;20181;-77
2023/05/21 03:52:35;;;;;;;24.03;21.93;;;;;;;13.65;100.00;99828.66;5072721;28;20230;-76
2023/05/21 03:55:00;;;;;;;23.90;21.90;;;;;;;13.64;100.00;99838.22;5072203;28;20913;-77
2023/05/21 03:57:25;;;;;;;26.53;24.30;;;;;;;13.64;100.00;99839.97;5057041;28;20200;-77
2023/05/21 03:59:51;;;;;;;25.40;23.40;;;;;;;13.64;100.00;99846.03;5070433;28;20220;-78
2023/05/21 04:02:16;;;;;;;26.33;24.10;;;;;;;13.64;100.00;99846.03;5071341;28;20184;-78
2023/05/21 04:04:43;;;;;;;24.80;22.80;;;;;;;13.64;100.00;99845.16;5075144;28;20192;-78
2023/05/21 04:07:13;;;;;;;24.83;22.83;;;;;;;13.63;100.00;99846.94;5077548;28;20896;-78
2023/05/21 04:09:38;;;;;;;24.63;22.67;;;;;;;13.65;100.00;99847.75;5078447;28;20193;-78
2023/05/21 04:12:04;;;;;;;22.93;21.10;;;;;;;13.63;100.00;99849.53;5056442;28;20250;-77
2023/05/21 04:14:29;;;;;;;24.00;22.10;;;;;;;13.66;100.00;99848.56;5072987;28;20296;-76
2023/05/21 04:16:55;;;;;;;24.13;22.13;;;;;;;13.68;100.00;99846.78;5071615;28;20273;-78
2023/05/21 04:19:20;;;;;;;24.23;22.23;;;;;;;13.72;100.00;99857.06;5072773;28;21164;-78
2023/05/21 04:21:46;;;;;;;24.40;22.20;;;;;;;13.77;100.00;99861.28;5069385;28;20213;-77
2023/05/21 04:24:11;;;;;;;25.33;23.20;;;;;;;13.81;100.00;99855.94;5057111;28;20184;-78
2023/05/21 04:26:41;;;;;;;25.60;23.40;;;;;;;13.87;100.00;99857.50;5055712;28;20681;-78
2023/05/21 04:29:07;;;;;;;24.87;22.93;;;;;;;13.95;100.00;99858.13;5075279;28;20183;-77
2023/05/21 04:31:32;;;;;;;24.03;22.07;;;;;;;14.03;100.00;99855.31;5053204;28;20200;-77
2023/05/21 04:33:58;;;;;;;26.43;24.03;;;;;;;14.12;100.00;99859.38;5072274;28;20230;-78
2023/05/21 04:36:23;;;;;;;24.87;22.87;;;;;;;14.23;100.00;99864.25;5072862;28;20192;-76
2023/05/21 04:38:49;;;;;;;24.43;22.43;;;;;;;14.32;100.00;99859.59;5073345;28;20854;-77
2023/05/21 04:41:17;;;;;;;25.23;23.03;;;;;;;14.45;100.00;99867.00;5073783;28;20200;-77
2023/05/21 04:43:43;;;;;;;25.10;23.10;;;;;;;14.56;100.00;99872.75;5056334;28;20196;-78
2023/05/21 04:46:08;;;;;;;25.17;22.90;;;;;;;14.69;100.00;99873.22;5074461;28;20191;-77
2023/05/21 04:48:33;;;;;;;24.23;22.13;;;;;;;14.83;100.00;99874.50;5054833;28;20286;-77
2023/05/21 04:50:59;;;;;;;25.47;23.33;;;;;;;14.95;100.00;99871.53;5058112;28;20197;-79
2023/05/21 04:53:24;;;;;;;24.50;22.47;;;;;;;15.11;100.00;99871.84;5072990;28;20185;-78
2023/05/21 04:55:50;;;;;;;23.27;21.00;;;;;;;15.29;100.00;99880.75;5059214;28;20182;-76
2023/05/21 04:58:17;;;;;;;22.17;20.27;;;;;;;15.46;100.00;99879.31;5074049;28;20980;-78
2023/05/21 05:00:45;;;;;;;23.37;21.37;;;;;;;15.58;100.00;99873.66;5070785;28;20688;-77
2023/05/21 05:03:11;;;;;;;21.90;20.00;;;;;;;15.74;100.00;99881.78;5050172;28;20206;-77
2023/05/21 05:05:36;;;;;;;21.83;20.03;;;;;;;15.94;100.00;99882.84;5071973;28;20185;-77
2023/05/21 05:08:02;;;;;;;22.70;20.77;;;;;;;16.09;100.00;99884.88;5056317;28;20196;-77
2023/05/21 05:10:28;;;;;;;23.17;21.17;;;;;;;16.31;100.00;99886.63;5075421;28;20266;-78
2023/05/21 05:12:53;;;;;;;21.40;19.50;;;;;;;16.52;100.00;99884.09;5075053;28;20743;-75
2023/05/21 05:15:18;;;;;;;22.30;20.40;;;;;;;16.76;100.00;99880.47;5079616;28;20227;-77
2023/05/21 05:17:46;;;;;;;22.20;20.27;;;;;;;17.05;100.00;99873.19;5074223;28;20580;-78
2023/05/21 05:20:12;;;;;;;22.93;21.03;;;;;;;17.28;100.00;99875.72;5073046;28;20561;-76
2023/05/21 05:22:37;;;;;;;21.37;19.67;;;;;;;17.59;100.00;99877.00;5072236;28;20589;-76
2023/05/21 05:25:03;;;;;;;22.07;20.13;;;;;;;17.85;100.00;99869.75;5073564;28;20198;-76
2023/05/21 05:27:28;;;;;;;20.77;18.97;;;;;;;18.08;100.00;99873.94;5058346;28;20206;-78
2023/05/21 05:29:53;;;;;;;20.53;18.73;;;;;;;18.30;100.00;99876.41;5072839;28;20181;-76
2023/05/21 05:32:19;;;;;;;19.60;17.90;;;;;;;18.41;100.00;99875.88;5074281;28;20193;-76
2023/05/21 05:34:45;;;;;;;20.87;19.17;;;;;;;18.31;100.00;99874.63;5073684;28;20277;-76
2023/05/21 05:37:10;;;;;;;20.30;18.43;;;;;;;18.27;100.00;99872.16;5071082;28;20209;-77
2023/05/21 05:39:35;;;;;;;21.10;19.23;;;;;;;18.19;100.00;99862.94;5074626;28;20200;-77
2023/05/21 05:42:02;;;;;;;21.87;19.87;;;;;;;18.13;100.00;99867.56;5057114;28;20181;-78
2023/05/21 05:44:27;;;;;;;20.97;19.10;;;;;;;18.00;100.00;99869.03;5075172;28;20195;-78
2023/05/21 05:46:52;;;;;;;20.13;18.53;;;;;;;17.88;100.00;99861.75;5074302;28;20211;-76
2023/05/21 05:49:18;;;;;;;20.60;18.70;;;;;;;17.78;100.00;99870.03;5077335;28;20191;-77
2023/05/21 05:51:43;;;;;;;20.57;18.77;;;;;;;17.74;100.00;99868.47;5076500;28;20687;-77
2023/05/21 05:54:08;;;;;;;20.83;19.00;;;;;;;17.67;100.00;99867.88;5077120;28;20188;-77
2023/05/21 05:56:34;;;;;;;21.20;19.43;;;;;;;17.58;100.00;99865.69;5073958;28;20948;-76
2023/05/21 05:58:59;;;;;;;21.30;19.40;;;;;;;17.54;100.00;99866.75;5075849;28;20270;-76
2023/05/21 06:01:25;;;;;;;21.97;19.90;;;;;;;17.42;100.00;99872.53;5076313;28;20193;-77
2023/05/21 06:03:51;;;;;;;21.20;19.40;;;;;;;17.36;100.00;99864.03;5077957;28;20262;-78
2023/05/21 06:06:16;;;;;;;19.97;18.27;;;;;;;17.47;100.00;99870.56;5063142;28;20281;-76
2023/05/21 06:08:41;;;;;;;21.27;19.33;;;;;;;17.35;100.00;99867.56;5078123;28;20219;-78
2023/05/21 06:11:07;;;;;;;20.37;18.57;;;;;;;17.50;100.00;99865.19;5077936;28;20689;-77
2023/05/21 06:13:33;;;;;;;19.63;17.93;;;;;;;17.65;100.00;99871.50;5079670;28;20265;-77
2023/05/21 06:15:58;;;;;;;21.17;19.17;;;;;;;17.78;100.00;99866.53;5080627;28;20234;-78
2023/05/21 06:18:23;;;;;;;22.10;20.10;;;;;;;17.83;100.00;99861.94;5076316;28;20583;-77
2023/05/21 06:20:49;;;;;;;21.87;19.87;;;;;;;18.00;100.00;99865.59;5061834;28;20283;-76
2023/05/21 06:23:14;;;;;;;21.57;19.60;;;;;;;17.83;100.00;99864.56;5080952;28;20287;-75
2023/05/21 06:25:40;;;;;;;20.80;18.80;;;;;;;17.89;100.00;99866.06;5064066;28;20371;-76
2023/05/21 06:28:05;;;;;;;20.27;18.57;;;;;;;17.93;100.00;99863.22;5059657;28;20212;-76
2023/05/21 06:30:30;;;;;;;19.67;17.87;;;;;;;18.12;100.00;99867.63;5079420;28;20191;-77
2023/05/21 06:32:56;;;;;;;18.60;17.07;;;;;;;18.35;100.00;99868.31;5065810;28;21058;-77
2023/05/21 06:35:22;;;;;;;19.37;17.77;;;;;;;18.47;100.00;99867.72;5087100;28;20274;-76
2023/05/21 06:37:47;;;;;;;21.10;19.20;;;;;;;18.25;100.00;99873.97;5080170;28;20319;-76
2023/05/21 06:40:13;;;;;;;19.70;17.90;;;;;;;18.52;100.00;99867.50;5071862;28;20264;-77
2023/05/21 06:42:38;;;;;;;20.33;18.53;;;;;;;18.59;100.00;99867.13;5078524;28;20255;-76
2023/05/21 06:45:04;;;;;;;19.80;18.13;;;;;;;18.65;99.93;99858.09;5082125;28;20196;-78
2023/05/21 06:47:29;;;;;;;20.13;18.40;;;;;;;18.62;99.49;99862.66;5079128;28;20251;-76
2023/05/21 06:49:55;;;;;;;19.27;17.63;;;;;;;18.61;99.44;99850.47;5075365;28;20224;-76
2023/05/21 06:52:20;;;;;;;21.10;19.27;;;;;;;18.49;99.96;99863.25;5078390;28;20194;-77
2023/05/21 06:54:46;;;;;;;21.13;19.40;;;;;;;18.38;99.78;99860.28;5082240;28;20188;-78
2023/05/21 06:57:14;;;;;;;21.00;19.20;;;;;;;18.34;100.00;99859.59;5059519;28;20220;-77
2023/05/21 06:59:39;;;;;;;20.33;18.53;;;;;;;18.42;100.00;99857.47;5079343;28;20291;-76
2023/05/21 07:02:05;;;;;;;21.00;19.20;;;;;;;18.34;100.00;99858.75;5084128;28;20308;-77
2023/05/21 07:04:30;;;;;;;18.43;16.80;;;;;;;18.59;100.00;99858.41;5080130;28;20221;-75
2023/05/21 07:06:56;;;;;;;19.33;17.60;;;;;;;18.59;100.00;99864.50;5062273;28;20611;-76
2023/05/21 07:09:21;;;;;;;20.57;18.77;;;;;;;18.55;100.00;99862.94;5074048;28;20196;-76
2023/05/21 07:11:46;;;;;;;19.27;17.67;;;;;;;18.66;99.59;99854.56;5076147;28;20283;-75
2023/05/21 07:14:12;;;;;;;19.83;18.20;;;;;;;18.66;100.00;99859.81;5081211;28;20240;-77
2023/05/21 07:16:38;;;;;;;21.13;19.27;;;;;;;18.71;100.00;99864.81;5058560;28;20193;-77
2023/05/21 07:19:03;;;;;;;19.10;17.43;;;;;;;18.82;99.65;99861.66;5079738;28;20207;-75
2023/05/21 07:21:28;;;;;;;20.30;18.50;;;;;;;18.62;100.00;99868.72;5076515;28;20731;-79
2023/05/21 07:23:53;;;;;;;20.63;18.83;;;;;;;18.87;99.54;99863.13;5083953;28;20185;-78
2023/05/21 07:26:20;;;;;;;19.97;18.17;;;;;;;18.99;98.95;99858.19;5079392;28;20197;-75
2023/05/21 07:28:45;;;;;;;20.37;18.57;;;;;;;19.25;98.03;99861.28;5078094;28;20224;-75
2023/05/21 07:31:13;;;;;;;20.87;19.07;;;;;;;19.31;97.52;99864.44;5075922;28;20203;-79
2023/05/21 07:33:39;;;;;;;19.93;18.17;;;;;;;19.55;96.32;99860.59;5078273;28;20896;-75
2023/05/21 07:36:04;;;;;;;19.27;17.37;;;;;;;19.88;95.92;99854.50;5055636;28;20189;-78
2023/05/21 07:38:30;;;;;;;19.40;17.70;;;;;;;19.94;94.93;99852.38;5058967;28;20261;-76
2023/05/21 07:40:56;;;;;;;18.97;17.23;;;;;;;20.16;93.75;99858.22;5079485;28;20197;-74
2023/05/21 07:43:21;;;;;;;18.43;16.90;;;;;;;20.28;93.28;99861.91;5061407;28;20684;-76
2023/05/21 07:45:46;;;;;;;18.87;17.27;;;;;;;20.17;92.89;99854.66;5057458;28;20190;-77
2023/05/21 07:48:13;;;;;;;18.00;16.53;;;;;;;20.71;92.11;99852.41;5060224;28;20287;-76
2023/05/21 07:50:38;;;;;;;17.40;15.90;;;;;;;21.14;90.48;99850.84;5079356;28;20677;-77
2023/05/21 07:53:03;;;;;;;16.17;14.87;;;;;;;21.44;89.53;99834.97;5083290;28;20197;-77
2023/05/21 07:55:28;;;;;;;17.73;16.13;;;;;;;21.60;88.44;99834.88;5081456;28;20185;-75
2023/05/21 07:57:55;;;;;;;17.57;16.00;;;;;;;22.00;87.10;99835.97;5063067;28;20196;-76
2023/05/21 08:00:22;;;;;;;15.80;14.50;;;;;;;22.19;86.03;99843.50;5078337;28;21000;-77
2023/05/21 08:02:48;;;;;;;16.03;14.73;;;;;;;22.15;85.05;99836.75;5064812;28;20331;-76
2023/05/21 08:05:15;;;;;;;15.80;14.50;;;;;;;22.15;85.19;99831.47;5078411;28;20192;-77
2023/05/21 08:07:40;;;;;;;14.90;13.70;;;;;;;22.51;84.49;99830.88;5079673;28;20489;-75
2023/05/21 08:10:06;;;;;;;15.97;14.57;;;;;;;22.60;83.63;99837.34;5080968;28;20924;-76
2023/05/21 08:12:31;;;;;;;16.37;15.00;;;;;;;22.55;83.84;99831.50;5064538;28;20230;-77
2023/05/21 08:14:58;;;;;;;16.80;15.30;;;;;;;22.82;83.32;99835.91;5081710;28;20198;-79
2023/05/21 08:17:23;;;;;;;15.73;14.33;;;;;;;22.99;82.21;99832.94;5077648;28;20224;-76
2023/05/21 08:19:49;;;;;;;14.93;13.73;;;;;;;23.17;81.97;99842.34;5079763;28;20206;-77
2023/05/21 08:22:14;;;;;;;16.50;14.90;;;;;;;22.48;83.40;99838.97;5056537;28;20216;-75
2023/05/21 08:24:40;;;;;;;15.67;14.37;;;;;;;22.25;83.78;99835.19;5078947;28;20209;-78
2023/05/21 08:27:06;;;;;;;16.43;15.00;;;;;;;21.98;84.62;99836.03;5079805;28;20216;-78
2023/05/21 08:29:31;;;;;;;15.57;14.20;;;;;;;22.09;85.11;99832.72;5078577;28;20227;-75
2023/05/21 08:31:57;;;;;;;17.17;15.77;;;;;;;22.02;85.02;99836.69;5076437;28;20193;-75
2023/05/21 08:34:23;;;;;;;15.13;13.93;;;;;;;22.11;84.93;99833.47;5079088;28;20599;-78
2023/05/21 08:36:48;;;;;;;15.30;14.10;;;;;;;22.25;84.58;99829.09;5052864;28;20208;-77
2023/05/21 08:39:14;;;;;;;15.70;14.40;;;;;;;22.36;84.53;99830.09;5077790;28;20284;-78
2023/05/21 08:41:41;;;;;;;15.37;14.00;;;;;;;22.44;85.16;99832.25;5084078;28;20200;-77
2023/05/21 08:44:11;;;;;;;16.37;15.03;;;;;;;22.33;83.40;99834.69;5083914;28;20185;-76
2023/05/21 08:46:39;;;;;;;15.83;14.53;;;;;;;22.35;83.59;99825.75;5082760;28;20189;-76
2023/05/21 08:49:10;;;;;;;16.33;14.83;;;;;;;22.22;84.14;99833.59;5059051;28;20776;-76
2023/05/21 08:51:37;;;;;;;15.60;14.30;;;;;;;21.97;84.55;99836.16;5076713;28;20667;-76
2023/05/21 08:54:04;;;;;;;15.77;14.40;;;;;;;22.10;84.58;99830.91;5075712;28;20234;-74
2023/05/21 08:56:30;;;;;;;15.60;14.30;;;;;;;22.28;84.13;99835.00;5079658;28;20185;-76
2023/05/21 08:58:56;;;;;;;15.03;13.73;;;;;;;22.44;84.06;99828.75;5061996;28;20239;-75
2023/05/21 09:01:21;;;;;;;14.63;13.43;;;;;;;22.66;83.30;99833.44;5075792;28;20205;-75
2023/05/21 09:03:49;;;;;;;16.00;14.60;;;;;;;22.84;82.67;99833.97;5061214;28;20196;-77
2023/05/21 09:06:14;;;;;;;16.47;15.07;;;;;;;22.76;82.44;99834.53;5080309;28;20216;-77
2023/05/21 09:08:44;;;;;;;16.00;14.40;;;;;;;22.83;82.29;99833.16;5078716;28;20200;-77
2023/05/21 09:11:10;;;;;;;15.50;14.20;;;;;;;22.61;82.56;99840.84;5077935;28;20228;-75
2023/05/21 09:13:37;;;;;;;15.47;14.27;;;;;;;22.81;82.78;99842.97;5061089;28;20185;-75
2023/05/21 09:16:04;;;;;;;14.97;13.67;;;;;;;22.93;82.77;99838.66;5083894;28;20185;-77
2023/05/21 09:18:30;;;;;;;14.73;13.57;;;;;;;22.88;82.26;99832.84;5078673;28;20300;-76
2023/05/21 09:20:55;;;;;;;16.53;15.13;;;;;;;22.62;82.74;99839.84;5059055;28;20323;-77
2023/05/21 09:23:21;;;;;;;15.40;14.20;;;;;;;22.71;82.68;99833.13;5063080;28;20628;-77
2023/05/21 09:25:47;;;;;;;15.20;14.00;;;;;;;22.64;82.37;99843.25;5080343;28;20185;-76
2023/05/21 09:28:14;;;;;;;14.90;13.60;;;;;;;22.93;82.35;99836.00;5083649;28;20222;-77
2023/05/21 09:30:47;;;;;;;16.50;15.00;;;;;;;22.85;82.70;99840.94;5076778;28;20212;-76
2023/05/21 09:33:24;;;;;;;15.00;13.80;;;;;;;22.93;82.60;99837.78;5083487;28;20213;-77
2023/05/21 09:35:50;;;;;;;14.57;13.30;;;;;;;23.01;83.53;99834.63;5081111;28;20658;-78
2023/05/21 09:38:15;;;;;;;14.73;13.53;;;;;;;23.06;81.75;99843.09;5058023;28;20213;-79
2023/05/21 09:40:47;;;;;;;14.10;12.93;;;;;;;22.90;82.77;99845.94;5078253;28;20181;-76
2023/05/21 09:43:16;;;;;;;14.57;13.30;;;;;;;22.82;82.93;99839.38;5078928;28;20702;-78
2023/05/21 09:45:52;;;;;;;14.70;13.40;;;;;;;22.98;81.69;99833.06;5060618;28;20189;-76
2023/05/21 09:48:31;;;;;;;13.73;12.50;;;;;;;23.27;81.55;99836.38;5082393;28;20279;-77
2023/05/21 09:51:09;;;;;;;16.33;14.70;;;;;;;23.31;81.21;99828.22;5079413;28;20192;-77
2023/05/21 09:53:35;;;;;;;14.57;13.27;;;;;;;23.50;80.44;99836.53;5079359;28;20661;-75
2023/05/21 09:56:02;;;;;;;13.30;12.30;;;;;;;23.77;80.05;99832.88;5060609;28;20251;-78
2023/05/21 09:58:27;;;;;;;12.97;11.97;;;;;;;24.02;79.36;99834.63;5080343;28;20241;-77
2023/05/21 10:00:53;;;;;;;13.67;12.47;;;;;;;24.14;79.11;99830.25;5081302;28;20189;-77
2023/05/21 10:03:22;;;;;;;14.33;13.23;;;;;;;24.09;78.27;99834.19;5059732;28;20748;-78
2023/05/21 10:05:51;;;;;;;14.33;13.03;;;;;;;23.87;78.61;99841.00;5074295;28;20189;-77
2023/05/21 10:08:17;;;;;;;13.47;12.33;;;;;;;23.81;78.85;99826.44;5079107;28;20194;-77
2023/05/21 10:10:44;;;;;;;13.53;12.43;;;;;;;23.96;78.69;99827.16;5081605;28;20200;-77
2023/05/21 10:13:13;;;;;;;13.73;12.53;;;;;;;23.90;77.88;99825.75;5079938;28;20173;-77
2023/05/21 10:15:44;;;;;;;14.00;12.90;;;;;;;24.12;77.19;99818.13;5075751;28;20665;-76
2023/05/21 10:18:12;;;;;;;13.03;11.83;;;;;;;24.20;77.47;99816.56;5074340;28;20578;-75
2023/05/21 10:20:37;;;;;;;14.03;12.83;;;;;;;24.41;77.85;99812.47;5065087;28;20181;-76
2023/05/21 10:23:03;;;;;;;13.67;12.57;;;;;;;24.52;77.33;99825.72;5080977;28;20197;-77
2023/05/21 10:25:30;;;;;;;13.67;12.37;;;;;;;24.39;77.63;99814.38;5059611;28;20174;-75
2023/05/21 10:27:56;;;;;;;13.43;12.23;;;;;;;24.49;77.62;99815.38;5081243;28;20197;-77
2023/05/21 10:30:22;;;;;;;13.57;12.57;;;;;;;24.69;77.54;99815.69;5064149;28;20181;-76
2023/05/21 10:32:48;;;;;;;13.97;12.87;;;;;;;24.53;77.28;99814.19;5077540;28;20193;-76
2023/05/21 10:35:17;;;;;;;13.63;12.53;;;;;;;24.49;77.54;99818.00;5081776;28;20189;-76
2023/05/21 10:37:44;;;;;;;13.60;12.43;;;;;;;24.33;77.17;99810.41;5078452;28;20291;-77
2023/05/21 10:40:10;;;;;;;12.23;11.33;;;;;;;24.49;77.17;99808.28;5063630;28;20540;-77
2023/05/21 10:42:50;;;;;;;12.50;11.50;;;;;;;24.74;76.48;99813.53;5078947;28;20269;-77
2023/05/21 10:45:31;;;;;;;13.90;12.60;;;;;;;24.56;76.83;99819.25;5060078;28;20188;-77
2023/05/21 10:48:03;;;;;;;13.30;12.13;;;;;;;24.42;77.50;99808.88;5078823;28;20562;-76
2023/05/21 10:51:03;;;;;;;12.63;11.63;;;;;;;24.65;77.38;99810.59;5076774;28;20169;-78
2023/05/21 10:53:31;;;;;;;12.43;11.40;;;;;;;24.79;76.22;99806.09;5073057;28;20193;-77
2023/05/21 10:56:12;;;;;;;12.97;11.87;;;;;;;24.80;76.05;99808.66;5074893;28;20178;-76
2023/05/21 10:58:40;;;;;;;12.03;11.13;;;;;;;24.74;75.61;99802.94;5078878;28;20212;-77
2023/05/21 11:01:06;;;;;;;11.83;10.83;;;;;;;24.90;75.21;99803.47;5079452;28;20185;-77
2023/05/21 11:03:33;;;;;;;12.70;11.80;;;;;;;24.81;75.79;99806.81;5078430;28;20677;-77
2023/05/21 11:06:01;;;;;;;12.60;11.60;;;;;;;24.68;75.63;99811.34;5071606;28;20724;-76
2023/05/21 11:08:32;;;;;;;12.03;11.13;;;;;;;24.32;75.18;99812.19;5080870;28;20302;-78